Paris, Kentucky
Current Conditions -  °F | °C
As of 5:15 AM on Monday 26 Jan 2015 (Local Time) from KIOB Reporting Station
Overcast Overcast  
Wind Chill: 22°   Ceiling: 400
Heat Index: 32°   Visibility: 10mi
Dew Point: 32°   Wind: 14mph
Humidity: 100%   Direction: 340°NNW
Pressure: 29.72"   Gusts: 18mph
Location:  38.21°N, 84.25°W
Report Text: KIOB 261015Z AUTO 34012G16KT 10SM OVC004 00/00 A2972 RMK AO2
Loading
Personal Weather Stations






























Interactive Weather Map New forecast layout! Learn more

10-Day Weather Forecast

Advertisements
Track Severe Weather on mobile